createdAt,value
2023-04-25T00:00:53.203Z,1.58
2023-04-25T00:03:20.195Z,1.52
2023-04-25T00:05:46.960Z,1.65
2023-04-25T00:08:13.602Z,2.33
2023-04-25T00:10:42.461Z,1.77
2023-04-25T00:13:08.963Z,1.67
2023-04-25T00:15:36.722Z,1.50
2023-04-25T00:18:03.102Z,1.50
2023-04-25T00:20:30.817Z,1.50
2023-04-25T00:22:57.050Z,1.65
2023-04-25T00:25:23.533Z,1.17
2023-04-25T00:27:50.063Z,1.63
2023-04-25T00:30:16.743Z,1.52
2023-04-25T00:32:43.177Z,1.30
2023-04-25T00:35:10.481Z,1.48
2023-04-25T00:37:36.722Z,1.70
2023-04-25T00:40:06.715Z,1.60
2023-04-25T00:42:32.858Z,1.55
2023-04-25T00:44:59.757Z,1.50
2023-04-25T00:47:26.547Z,1.50
2023-04-25T00:49:54.098Z,1.30
2023-04-25T00:52:20.910Z,1.90
2023-04-25T00:54:47.045Z,1.95
2023-04-25T00:57:13.505Z,2.10
2023-04-25T00:59:46.151Z,1.80
2023-04-25T01:02:12.944Z,2.35
2023-04-25T01:04:42.639Z,1.90
2023-04-25T01:07:09.967Z,1.95
2023-04-25T01:09:36.400Z,1.50
2023-04-25T01:12:06.120Z,1.80
2023-04-25T01:14:32.353Z,1.65
2023-04-25T01:16:59.321Z,2.17
2023-04-25T01:19:26.572Z,1.70
2023-04-25T01:21:52.917Z,2.42
2023-04-25T01:24:19.385Z,1.98
2023-04-25T01:26:50.231Z,1.83
2023-04-25T01:29:20.578Z,2.10
2023-04-25T01:31:50.121Z,2.42
2023-04-25T01:34:16.508Z,2.28
2023-04-25T01:36:42.709Z,2.63
2023-04-25T01:39:11.305Z,2.22
2023-04-25T01:41:37.629Z,1.70
2023-04-25T01:44:04.482Z,2.00
2023-04-25T01:46:31.618Z,2.13
2023-04-25T01:48:58.090Z,3.22
2023-04-25T01:51:24.449Z,1.90
2023-04-25T01:53:50.769Z,1.90
2023-04-25T01:56:18.993Z,1.88
2023-04-25T01:58:45.432Z,2.10
2023-04-25T02:01:18.992Z,2.05
2023-04-25T02:03:45.820Z,2.33
2023-04-25T02:06:12.109Z,2.25
2023-04-25T02:08:38.544Z,2.17
2023-04-25T02:11:04.988Z,2.20
2023-04-25T02:13:31.255Z,2.03
2023-04-25T02:15:58.122Z,2.63
2023-04-25T02:18:24.683Z,2.10
2023-04-25T02:20:53.775Z,2.10
2023-04-25T02:23:20.253Z,2.80
2023-04-25T02:25:46.816Z,1.95
2023-04-25T02:28:13.268Z,2.25
2023-04-25T02:30:42.082Z,2.45
2023-04-25T02:33:08.746Z,2.30
2023-04-25T02:35:34.841Z,2.15
2023-04-25T02:38:01.086Z,2.65
2023-04-25T02:40:27.309Z,2.45
2023-04-25T02:42:53.723Z,2.65
2023-04-25T02:45:20.055Z,2.50
2023-04-25T02:47:46.356Z,2.30
2023-04-25T02:50:12.831Z,2.80
2023-04-25T02:52:39.136Z,2.83
2023-04-25T02:55:06.121Z,2.45
2023-04-25T02:57:34.052Z,2.42
2023-04-25T03:00:00.448Z,2.42
2023-04-25T03:02:26.763Z,2.47
2023-04-25T03:04:53.396Z,2.58
2023-04-25T03:07:19.609Z,2.30
2023-04-25T03:09:45.771Z,2.92
2023-04-25T03:12:11.934Z,2.85
2023-04-25T03:14:38.288Z,2.83
2023-04-25T03:17:04.740Z,2.55
2023-04-25T03:19:31.026Z,2.70
2023-04-25T03:21:57.300Z,2.60
2023-04-25T03:24:23.661Z,2.90
2023-04-25T03:26:49.932Z,2.70
2023-04-25T03:29:16.277Z,2.55
2023-04-25T03:31:42.656Z,3.15
2023-04-25T03:34:08.832Z,2.53
2023-04-25T03:36:35.043Z,2.50
2023-04-25T03:39:01.276Z,3.05
2023-04-25T03:41:28.518Z,2.88
2023-04-25T03:43:54.759Z,2.97
2023-04-25T03:46:21.017Z,3.08
2023-04-25T03:48:47.258Z,2.90
2023-04-25T03:51:13.604Z,2.85
2023-04-25T03:53:39.762Z,2.25
2023-04-25T03:56:06.364Z,2.70
2023-04-25T03:58:32.597Z,2.63
2023-04-25T04:00:58.863Z,2.83
2023-04-25T04:03:25.329Z,3.20
2023-04-25T04:05:51.854Z,2.78
2023-04-25T04:08:18.168Z,2.75
2023-04-25T04:10:44.550Z,2.63
2023-04-25T04:13:10.986Z,3.10
2023-04-25T04:15:40.191Z,2.80
2023-04-25T04:18:06.821Z,2.67
2023-04-25T04:20:33.539Z,2.35
2023-04-25T04:23:00.071Z,2.97
2023-04-25T04:25:27.228Z,2.97
2023-04-25T04:27:55.325Z,2.22
2023-04-25T04:30:25.525Z,3.15
2023-04-25T04:32:52.826Z,2.75
2023-04-25T04:35:19.117Z,3.10
2023-04-25T04:37:49.136Z,2.58
2023-04-25T04:40:18.305Z,3.20
2023-04-25T04:42:46.088Z,2.45
2023-04-25T04:45:12.994Z,2.78
2023-04-25T04:47:41.298Z,3.00
2023-04-25T04:50:11.916Z,2.85
2023-04-25T04:52:39.383Z,2.97
2023-04-25T04:55:06.528Z,2.70
2023-04-25T04:57:36.132Z,2.58
2023-04-25T05:00:05.537Z,2.70
2023-04-25T05:02:31.919Z,2.53
2023-04-25T05:04:58.464Z,2.75
2023-04-25T05:07:24.730Z,2.65
2023-04-25T05:09:53.263Z,2.58
2023-04-25T05:12:19.463Z,3.03
2023-04-25T05:14:46.193Z,2.47
2023-04-25T05:17:12.385Z,2.65
2023-04-25T05:19:40.009Z,2.47
2023-04-25T05:22:06.215Z,2.78
2023-04-25T05:24:32.528Z,2.30
2023-04-25T05:26:58.968Z,2.67
2023-04-25T05:29:25.166Z,2.72
2023-04-25T05:31:51.450Z,2.60
2023-04-25T05:34:17.682Z,2.60
2023-04-25T05:36:44.134Z,2.25
2023-04-25T05:39:13.060Z,2.67
2023-04-25T05:41:39.287Z,3.25
2023-04-25T05:44:08.426Z,3.55
2023-04-25T05:46:34.846Z,2.90
2023-04-25T05:49:01.369Z,3.80
2023-04-25T05:51:28.289Z,3.00
2023-04-25T05:53:54.519Z,3.58
2023-04-25T05:56:20.746Z,3.13
2023-04-25T05:58:47.618Z,3.40
2023-04-25T06:01:13.681Z,3.65
2023-04-25T06:03:40.052Z,3.58
2023-04-25T06:06:06.805Z,3.42
2023-04-25T06:08:33.143Z,3.45
2023-04-25T06:10:59.346Z,2.88
2023-04-25T06:13:25.665Z,3.28
2023-04-25T06:15:53.798Z,3.80
2023-04-25T06:18:19.982Z,3.20
2023-04-25T06:20:46.210Z,3.63
2023-04-25T06:23:12.324Z,4.30
2023-04-25T06:25:38.465Z,3.92
2023-04-25T06:28:09.355Z,3.67
2023-04-25T06:30:35.865Z,3.30
2023-04-25T06:33:01.918Z,3.72
2023-04-25T06:35:28.172Z,3.50
2023-04-25T06:37:54.370Z,3.80
2023-04-25T06:40:20.924Z,3.17
2023-04-25T06:42:47.258Z,3.50
2023-04-25T06:45:13.481Z,3.85
2023-04-25T06:47:44.350Z,3.60
2023-04-25T06:50:13.792Z,3.22
2023-04-25T06:52:39.976Z,3.25
2023-04-25T06:55:06.614Z,3.08
2023-04-25T06:57:32.816Z,2.85
2023-04-25T07:00:00.273Z,3.28
2023-04-25T07:02:30.541Z,2.70
2023-04-25T07:05:00.238Z,2.60
2023-04-25T07:07:27.330Z,2.67
2023-04-25T07:09:56.180Z,3.15
2023-04-25T07:12:22.593Z,3.13
2023-04-25T07:14:48.754Z,2.75
2023-04-25T07:17:16.022Z,2.75
2023-04-25T07:19:42.764Z,2.67
2023-04-25T07:22:08.895Z,3.38
2023-04-25T07:24:35.179Z,3.22
2023-04-25T07:27:01.979Z,3.22
2023-04-25T07:29:28.919Z,3.28
2023-04-25T07:31:55.346Z,3.35
2023-04-25T07:34:21.665Z,3.92
2023-04-25T07:36:47.848Z,3.20
2023-04-25T07:39:14.124Z,3.10
2023-04-25T07:41:40.708Z,3.03
2023-04-25T07:44:07.170Z,4.22
2023-04-25T07:46:33.429Z,3.97
2023-04-25T07:48:59.631Z,3.33
2023-04-25T07:51:26.715Z,3.90
2023-04-25T07:53:55.991Z,3.05
2023-04-25T07:56:22.563Z,2.50
2023-04-25T07:58:49.107Z,3.03
2023-04-25T08:01:15.680Z,3.17
2023-04-25T08:03:42.175Z,3.00
2023-04-25T08:06:09.156Z,3.67
2023-04-25T08:08:35.665Z,3.05
2023-04-25T08:11:02.000Z,3.78
2023-04-25T08:13:28.101Z,3.33
2023-04-25T08:15:54.382Z,4.25
2023-04-25T08:18:23.334Z,3.58
2023-04-25T08:20:49.417Z,3.45
2023-04-25T08:23:15.734Z,4.25
2023-04-25T08:25:46.253Z,3.50
2023-04-25T08:28:12.380Z,3.10
2023-04-25T08:30:38.708Z,3.25
2023-04-25T08:33:07.652Z,3.00
2023-04-25T08:35:36.884Z,3.15
2023-04-25T08:38:03.265Z,2.92
2023-04-25T08:40:30.870Z,2.45
2023-04-25T08:42:58.762Z,3.00
2023-04-25T08:45:28.139Z,2.92
2023-04-25T08:47:55.290Z,2.78
2023-04-25T08:50:26.938Z,3.40
2023-04-25T08:52:54.930Z,3.20
2023-04-25T08:55:22.666Z,3.28
2023-04-25T08:57:49.402Z,2.13
2023-04-25T09:00:16.280Z,2.50
2023-04-25T09:02:47.054Z,2.45
2023-04-25T09:05:15.020Z,2.50
2023-04-25T09:07:44.178Z,2.80
2023-04-25T09:10:10.475Z,2.60
2023-04-25T09:12:45.970Z,2.25
2023-04-25T09:15:20.501Z,2.80
2023-04-25T09:17:58.950Z,2.35
2023-04-25T09:20:30.266Z,2.67
2023-04-25T09:23:06.163Z,2.53
2023-04-25T09:25:40.402Z,2.35
2023-04-25T09:28:07.212Z,3.13
2023-04-25T09:30:35.596Z,3.15
2023-04-25T09:33:09.887Z,2.05
2023-04-25T09:35:47.133Z,2.47
2023-04-25T09:38:15.584Z,2.00
2023-04-25T09:40:46.589Z,2.63
2023-04-25T09:43:23.426Z,1.88
2023-04-25T09:45:52.380Z,2.55
2023-04-25T09:48:23.179Z,2.03
2023-04-25T09:51:10.966Z,2.78
2023-04-25T09:53:41.670Z,2.55
2023-04-25T09:56:12.343Z,2.13
2023-04-25T09:58:40.444Z,2.33
2023-04-25T10:01:11.300Z,2.05
2023-04-25T10:03:40.688Z,2.58
2023-04-25T10:06:13.654Z,2.03
2023-04-25T10:08:40.030Z,2.13
2023-04-25T10:11:08.568Z,1.85
2023-04-25T10:13:36.586Z,2.20
2023-04-25T10:16:05.561Z,1.58
2023-04-25T10:18:33.416Z,2.50
2023-04-25T10:21:04.053Z,2.63
2023-04-25T10:23:31.300Z,2.20
2023-04-25T10:25:58.701Z,2.03
2023-04-25T10:28:24.991Z,2.35
2023-04-25T10:31:05.142Z,2.00
2023-04-25T10:33:38.945Z,2.22
2023-04-25T10:36:15.910Z,2.40
2023-04-25T10:38:46.529Z,1.80
2023-04-25T10:41:14.038Z,1.92
2023-04-25T10:43:41.352Z,2.00
2023-04-25T10:46:31.745Z,1.98
2023-04-25T10:48:59.349Z,2.08
2023-04-25T10:51:50.991Z,1.90
2023-04-25T10:54:22.855Z,1.75
2023-04-25T10:56:49.426Z,2.40
2023-04-25T10:59:17.491Z,2.17
2023-04-25T11:01:49.797Z,1.85
2023-04-25T11:04:38.574Z,1.83
2023-04-25T11:07:11.019Z,2.05
2023-04-25T11:09:41.454Z,1.90
2023-04-25T11:12:12.358Z,2.17
2023-04-25T11:17:05.128Z,2.17
2023-04-25T11:19:31.654Z,2.58
2023-04-25T11:22:01.850Z,1.38
2023-04-25T11:24:32.465Z,1.80
2023-04-25T11:26:59.387Z,2.28
2023-04-25T11:29:31.758Z,2.15
2023-04-25T11:31:58.842Z,1.60
2023-04-25T11:34:25.919Z,1.30
2023-04-25T11:36:56.045Z,1.83
2023-04-25T11:39:22.732Z,1.88
2023-04-25T11:41:48.902Z,1.80
2023-04-25T11:44:18.697Z,1.65
2023-04-25T11:46:45.599Z,1.25
2023-04-25T11:49:18.972Z,1.88
2023-04-25T11:51:47.384Z,1.92
2023-04-25T11:54:14.698Z,1.70
2023-04-25T11:56:46.621Z,1.60
2023-04-25T11:59:13.713Z,1.38
2023-04-25T12:01:49.024Z,2.45
2023-04-25T12:04:27.730Z,1.52
2023-04-25T12:06:56.241Z,2.08
2023-04-25T12:09:35.993Z,1.98
2023-04-25T12:12:06.472Z,1.73
2023-04-25T12:14:34.483Z,1.42
2023-04-25T12:17:02.640Z,1.50
2023-04-25T12:19:37.263Z,2.10
2023-04-25T12:22:04.104Z,1.75
2023-04-25T12:24:30.420Z,1.73
2023-04-25T12:27:04.985Z,2.13
2023-04-25T12:29:48.556Z,2.42
2023-04-25T12:32:15.463Z,2.10
2023-04-25T12:34:41.676Z,1.40
2023-04-25T12:37:08.214Z,1.33
2023-04-25T12:39:34.301Z,1.77
2023-04-25T12:42:00.899Z,2.10
2023-04-25T12:44:27.308Z,1.67
2023-04-25T12:46:54.056Z,1.80
2023-04-25T12:49:20.185Z,1.52
2023-04-25T12:51:46.416Z,2.22
2023-04-25T12:54:12.638Z,1.42
2023-04-25T12:56:38.864Z,1.75
2023-04-25T12:59:05.089Z,1.65
2023-04-25T13:01:31.847Z,1.52
2023-04-25T13:03:59.013Z,1.60
2023-04-25T13:06:25.578Z,1.30
2023-04-25T13:08:53.712Z,1.23
2023-04-25T13:11:21.038Z,1.52
2023-04-25T13:13:47.155Z,1.63
2023-04-25T13:16:14.953Z,1.63
2023-04-25T13:18:41.228Z,1.10
2023-04-25T13:21:07.353Z,1.08
2023-04-25T13:23:33.887Z,1.27
2023-04-25T13:26:02.300Z,2.10
2023-04-25T13:28:32.450Z,1.52
2023-04-25T13:30:59.051Z,1.13
2023-04-25T13:33:25.322Z,1.23
2023-04-25T13:35:54.479Z,1.27
2023-04-25T13:38:25.692Z,1.02
2023-04-25T13:40:54.979Z,1.50
2023-04-25T13:43:25.636Z,1.50
2023-04-25T13:45:52.325Z,1.35
2023-04-25T13:48:19.485Z,1.45
2023-04-25T13:50:46.191Z,1.48
2023-04-25T13:53:13.004Z,1.63
2023-04-25T13:55:40.593Z,1.70
2023-04-25T13:58:08.400Z,1.40
2023-04-25T14:00:38.586Z,2.17
2023-04-25T14:03:08.675Z,1.65
2023-04-25T14:05:39.638Z,1.70
2023-04-25T14:08:07.660Z,1.30
2023-04-25T14:10:37.480Z,1.40
2023-04-25T14:13:04.858Z,1.50
2023-04-25T14:15:34.484Z,1.15
2023-04-25T14:18:01.551Z,1.15
2023-04-25T14:20:30.402Z,1.27
2023-04-25T14:22:58.579Z,1.08
2023-04-25T14:25:25.235Z,1.30
2023-04-25T14:27:51.843Z,1.42
2023-04-25T14:30:19.386Z,1.38
2023-04-25T14:32:46.244Z,0.98
2023-04-25T14:35:12.869Z,1.05
2023-04-25T14:37:39.876Z,1.33
2023-04-25T14:40:07.787Z,1.05
2023-04-25T14:42:38.743Z,1.48
2023-04-25T14:45:09.145Z,1.13
2023-04-25T14:47:36.709Z,1.23
2023-04-25T14:50:03.234Z,1.42
2023-04-25T14:52:29.614Z,1.00
2023-04-25T14:54:56.263Z,1.70
2023-04-25T14:57:22.709Z,1.38
2023-04-25T14:59:51.958Z,1.63
2023-04-25T15:02:18.334Z,1.50
2023-04-25T15:04:44.911Z,1.50
2023-04-25T15:07:11.209Z,1.05
2023-04-25T15:09:38.886Z,1.00
2023-04-25T15:12:05.290Z,1.15
2023-04-25T15:14:32.045Z,1.10
2023-04-25T15:16:58.203Z,1.08
2023-04-25T15:19:24.363Z,1.02
2023-04-25T15:21:50.874Z,1.25
2023-04-25T15:24:17.210Z,1.08
2023-04-25T15:26:43.582Z,1.30
2023-04-25T15:29:10.359Z,1.13
2023-04-25T15:31:36.780Z,1.30
2023-04-25T15:34:03.172Z,1.23
2023-04-25T15:36:29.312Z,1.00
2023-04-25T15:38:56.516Z,0.80
2023-04-25T15:41:26.074Z,1.27
2023-04-25T15:43:55.105Z,0.90
2023-04-25T15:46:24.176Z,1.00
2023-04-25T15:48:50.654Z,0.93
2023-04-25T15:51:19.441Z,1.40
2023-04-25T15:53:46.651Z,0.95
2023-04-25T15:56:12.833Z,0.93
2023-04-25T15:58:38.899Z,1.08
2023-04-25T16:01:05.198Z,1.13
2023-04-25T16:03:35.336Z,0.70
2023-04-25T16:06:02.814Z,0.93
2023-04-25T16:08:29.451Z,1.27
2023-04-25T16:10:56.665Z,0.85
2023-04-25T16:13:23.102Z,0.75
2023-04-25T16:15:49.158Z,0.90
2023-04-25T16:18:18.564Z,0.90
2023-04-25T16:20:44.730Z,0.80
2023-04-25T16:23:10.803Z,0.82
2023-04-25T16:25:36.791Z,1.25
2023-04-25T16:28:03.144Z,0.80
2023-04-25T16:30:29.180Z,1.13
2023-04-25T16:32:56.879Z,0.70
2023-04-25T16:35:26.055Z,0.80
2023-04-25T16:37:52.996Z,0.77
2023-04-25T16:40:19.137Z,0.98
2023-04-25T16:42:47.954Z,0.82
2023-04-25T16:45:14.377Z,1.80
2023-04-25T16:47:43.426Z,0.90
2023-04-25T16:50:09.862Z,0.98
2023-04-25T16:52:35.976Z,1.48
2023-04-25T16:55:02.301Z,0.93
2023-04-25T16:57:28.617Z,0.95
2023-04-25T16:59:54.852Z,1.35
2023-04-25T17:02:21.239Z,1.08
2023-04-25T17:04:47.573Z,1.00
2023-04-25T17:07:13.756Z,1.20
2023-04-25T17:09:40.929Z,1.00
2023-04-25T17:12:07.727Z,1.05
2023-04-25T17:14:36.645Z,1.00
2023-04-25T17:17:03.320Z,0.95
2023-04-25T17:19:30.940Z,0.90
2023-04-25T17:21:59.915Z,0.80
2023-04-25T17:24:26.149Z,0.90
2023-04-25T17:26:52.435Z,0.80
2023-04-25T17:29:19.073Z,0.73
2023-04-25T17:31:45.635Z,0.73
2023-04-25T17:34:17.403Z,0.85
2023-04-25T17:36:47.738Z,0.70
2023-04-25T17:39:16.988Z,0.75
2023-04-25T17:41:44.069Z,0.70
2023-04-25T17:44:10.495Z,0.98
2023-04-25T17:46:37.208Z,0.93
2023-04-25T17:49:03.403Z,1.00
2023-04-25T17:51:30.021Z,1.10
2023-04-25T17:53:56.200Z,1.35
2023-04-25T17:56:27.149Z,1.27
2023-04-25T17:58:53.967Z,0.90
2023-04-25T18:01:20.524Z,1.10
2023-04-25T18:03:48.978Z,0.80
2023-04-25T18:06:16.185Z,1.13
2023-04-25T18:08:44.226Z,1.20
2023-04-25T18:11:10.387Z,1.05
2023-04-25T18:13:36.835Z,1.17
2023-04-25T18:16:04.165Z,0.80
2023-04-25T18:18:35.315Z,0.98
2023-04-25T18:21:05.960Z,0.90
2023-04-25T18:23:35.522Z,1.50
2023-04-25T18:26:04.821Z,1.10
2023-04-25T18:28:34.255Z,1.15
2023-04-25T18:31:00.496Z,1.27
2023-04-25T18:33:26.606Z,1.35
2023-04-25T18:35:59.595Z,1.10
2023-04-25T18:41:00.156Z,1.20
2023-04-25T18:43:34.153Z,0.98
2023-04-25T18:46:00.553Z,1.00
2023-04-25T18:48:27.204Z,1.30
2023-04-25T18:50:56.284Z,1.00
2023-04-25T18:53:22.572Z,1.38
2023-04-25T18:55:48.651Z,1.20
2023-04-25T18:58:16.055Z,1.85
2023-04-25T19:00:42.400Z,1.17
2023-04-25T19:03:08.691Z,1.30
2023-04-25T19:05:37.961Z,1.55
2023-04-25T19:08:04.425Z,1.33
2023-04-25T19:10:30.643Z,1.88
2023-04-25T19:12:57.216Z,1.17
2023-04-25T19:15:23.337Z,1.67
2023-04-25T19:17:49.519Z,1.00
2023-04-25T19:20:18.855Z,1.25
2023-04-25T19:22:48.042Z,1.00
2023-04-25T19:25:14.169Z,1.27
2023-04-25T19:27:40.426Z,1.08
2023-04-25T19:30:13.175Z,1.10
2023-04-25T19:32:39.413Z,1.20
2023-04-25T19:35:10.457Z,1.33
2023-04-25T19:37:37.802Z,1.00
2023-04-25T19:40:07.719Z,1.48
2023-04-25T19:42:36.748Z,1.58
2023-04-25T19:45:03.218Z,1.77
2023-04-25T19:47:29.308Z,1.65
2023-04-25T19:49:55.861Z,1.25
2023-04-25T19:52:22.061Z,1.15
2023-04-25T19:54:48.148Z,1.10
2023-04-25T19:57:14.314Z,1.63
2023-04-25T19:59:40.551Z,1.75
2023-04-25T20:02:10.163Z,1.10
2023-04-25T20:04:36.694Z,1.38
2023-04-25T20:07:04.131Z,1.30
2023-04-25T20:09:33.302Z,1.20
2023-04-25T20:11:59.428Z,0.95
2023-04-25T20:14:25.765Z,1.10
2023-04-25T20:16:52.061Z,1.27
2023-04-25T20:19:18.934Z,1.15
2023-04-25T20:21:45.384Z,1.33
2023-04-25T20:24:11.794Z,0.90
2023-04-25T20:26:37.929Z,0.80
2023-04-25T20:29:05.524Z,2.53
2023-04-25T20:31:32.284Z,1.00
2023-04-25T20:33:59.995Z,0.88
2023-04-25T20:36:27.056Z,1.08
2023-04-25T20:38:53.643Z,1.38
2023-04-25T20:41:20.658Z,1.08
2023-04-25T20:43:47.779Z,1.20
2023-04-25T20:46:15.636Z,1.52
2023-04-25T20:48:42.422Z,1.38
2023-04-25T20:51:08.930Z,0.80
2023-04-25T20:53:35.664Z,1.13
2023-04-25T20:56:02.552Z,1.20
2023-04-25T20:58:28.744Z,1.30
2023-04-25T21:00:56.101Z,1.20
2023-04-25T21:03:22.748Z,1.42
2023-04-25T21:05:49.247Z,1.05
2023-04-25T21:08:15.623Z,1.15
2023-04-25T21:10:41.895Z,1.33
2023-04-25T21:13:08.449Z,1.00
2023-04-25T21:15:35.019Z,1.05
2023-04-25T21:18:02.001Z,1.35
2023-04-25T21:20:28.493Z,1.02
2023-04-25T21:22:54.697Z,1.30
2023-04-25T21:25:25.032Z,1.25
2023-04-25T21:27:52.100Z,1.33
2023-04-25T21:30:21.669Z,1.10
2023-04-25T21:32:52.768Z,1.55
2023-04-25T21:35:20.578Z,1.15
2023-04-25T21:37:47.258Z,1.15
2023-04-25T21:40:14.366Z,0.93
2023-04-25T21:42:43.198Z,1.27
2023-04-25T21:45:15.095Z,1.00
2023-04-25T21:47:41.438Z,1.10
2023-04-25T21:50:08.177Z,1.67
2023-04-25T21:52:35.767Z,0.98
2023-04-25T21:55:02.263Z,1.23
2023-04-25T21:57:28.888Z,1.20
2023-04-25T21:59:55.424Z,1.00
2023-04-25T22:02:22.158Z,1.20
2023-04-25T22:04:48.718Z,1.15
2023-04-25T22:07:15.366Z,0.90
2023-04-25T22:09:54.284Z,1.40
2023-04-25T22:12:22.475Z,1.02
2023-04-25T22:14:48.948Z,1.08
2023-04-25T22:17:15.357Z,0.93
2023-04-25T22:19:43.000Z,1.40
2023-04-25T22:22:11.428Z,0.95
2023-04-25T22:24:40.642Z,1.00
2023-04-25T22:27:06.726Z,1.40
2023-04-25T22:29:33.788Z,1.17
2023-04-25T22:32:00.270Z,1.20
2023-04-25T22:34:26.677Z,0.85
2023-04-25T22:36:54.602Z,1.02
2023-04-25T22:39:20.959Z,1.20
2023-04-25T22:41:47.672Z,1.08
2023-04-25T22:44:14.381Z,1.48
2023-04-25T22:46:43.886Z,1.10
2023-04-25T22:49:13.352Z,1.10
2023-04-25T22:51:39.555Z,1.13
2023-04-25T22:54:05.674Z,1.13
2023-04-25T22:56:34.871Z,1.42
2023-04-25T22:59:01.311Z,1.95
2023-04-25T23:01:31.157Z,1.20
2023-04-25T23:03:58.156Z,1.10
2023-04-25T23:06:24.729Z,1.17
2023-04-25T23:08:51.230Z,0.95
2023-04-25T23:11:17.469Z,1.00
2023-04-25T23:13:43.768Z,1.20
2023-04-25T23:16:10.457Z,1.35
2023-04-25T23:18:37.232Z,1.20
2023-04-25T23:21:04.030Z,1.77
2023-04-25T23:23:36.684Z,1.30
2023-04-25T23:26:10.200Z,1.40
2023-04-25T23:28:41.867Z,1.15
2023-04-25T23:31:09.868Z,1.33
2023-04-25T23:33:38.737Z,1.02
2023-04-25T23:36:05.668Z,1.27
2023-04-25T23:38:31.987Z,1.70
2023-04-25T23:40:58.320Z,1.73
2023-04-25T23:43:24.443Z,1.08
2023-04-25T23:45:54.858Z,1.38
2023-04-25T23:48:29.186Z,1.55
2023-04-25T23:50:55.888Z,1.30
2023-04-25T23:53:22.075Z,1.10
2023-04-25T23:55:48.535Z,1.42
2023-04-25T23:58:14.761Z,1.10
